Hersman, Illinois
Current Conditions -  °F | °C
As of 3:35 AM on Wednesday 26 Nov 2014 (Local Time) from KPPQ Reporting Station
Clear Clear  
Wind Chill: 21°   Ceiling: Unl
Heat Index: 29°   Visibility: 10mi
Dew Point: 26°   Wind: 7mph
Humidity: 88%   Direction: 130°SE
Pressure: 30.08"   Gusts: NA
Location:  39.9985°N, 90.6925°W
Report Text: KPPQ 260935Z AUTO 13006KT 10SM CLR M02/M04 A3008 RMK AO2 T10191036 PWINO
Loading
Personal Weather Stations






























Interactive Weather Map New forecast layout! Learn more

10-Day Weather Forecast

Advertisements
Track Severe Weather on mobile